Time;durP1;ratioP1;P1;durP2;ratioP2;P2;SDS_P1;SDS_P2;PMS_P1;PMS_P2;Temp;Humidity;BMP_temperature;BMP_pressure;BME280_temperature;BME280_humidity;BME280_pressure;Samples;Min_cycle;Max_cycle;Signal;HPM_P1;HPM_P2
2023/12/28 00:01:13;;;;;;;0.30;0.30;;;;;;;16.83;59.07;100707.06;5061097;28;20127;-74
2023/12/28 00:03:40;;;;;;;0.20;0.20;;;;;;;15.55;62.86;100724.94;5059017;28;20131;-74
2023/12/28 00:06:06;;;;;;;0.30;0.30;;;;;;;16.29;60.60;100732.94;5061046;28;20028;-74
2023/12/28 00:08:32;;;;;;;0.20;0.20;;;;;;;16.25;60.64;100726.44;5063445;28;20028;-74
2023/12/28 00:10:58;;;;;;;0.30;0.30;;;;;;;15.88;62.59;100734.63;5059954;28;20470;-75
2023/12/28 00:13:23;;;;;;;0.20;0.20;;;;;;;16.72;60.42;100738.00;5064347;28;20080;-74
2023/12/28 00:15:48;;;;;;;0.30;0.30;;;;;;;16.19;61.52;100750.00;5059167;28;20039;-74
2023/12/28 00:18:14;;;;;;;0.20;0.20;;;;;;;16.61;59.78;100739.88;5061951;28;20393;-74
2023/12/28 00:20:39;;;;;;;0.30;0.30;;;;;;;16.51;60.06;100750.69;5060004;28;20027;-74
2023/12/28 00:23:06;;;;;;;0.25;0.25;;;;;;;16.06;61.76;100747.75;5064360;28;20085;-74
2023/12/28 00:25:31;;;;;;;0.30;0.30;;;;;;;16.63;59.51;100745.84;5065741;28;20071;-75
2023/12/28 00:27:57;;;;;;;0.20;0.20;;;;;;;15.96;63.16;100755.03;5050951;28;20148;-74
2023/12/28 00:30:22;;;;;;;0.20;0.20;;;;;;;15.93;62.94;100760.94;5069355;28;20052;-73
2023/12/28 00:32:48;;;;;;;0.20;0.20;;;;;;;15.79;64.19;100758.72;5050919;28;20127;-74
2023/12/28 00:35:13;;;;;;;0.30;0.30;;;;;;;16.40;60.97;100759.84;5068648;28;20076;-74
2023/12/28 00:37:39;;;;;;;0.20;0.20;;;;;;;16.28;61.56;100767.38;5048243;28;20050;-73
2023/12/28 00:40:06;;;;;;;0.30;0.30;;;;;;;16.25;62.56;100764.38;5068274;28;20485;-73
2023/12/28 00:42:32;;;;;;;0.20;0.20;;;;;;;16.43;62.16;100759.28;5067978;28;20045;-73
2023/12/28 00:44:57;;;;;;;0.10;0.10;;;;;;;16.24;62.24;100769.00;5064007;28;20102;-73
2023/12/28 00:47:23;;;;;;;0.22;0.22;;;;;;;16.20;62.36;100767.06;5069033;28;20044;-74
2023/12/28 00:49:48;;;;;;;0.35;0.35;;;;;;;16.45;61.74;100767.97;5064824;28;20036;-75
2023/12/28 00:52:13;;;;;;;0.30;0.30;;;;;;;16.19;62.36;100800.69;5068422;28;20044;-73
2023/12/28 00:54:39;;;;;;;0.20;0.20;;;;;;;16.63;61.69;100777.56;5064284;28;20025;-72
2023/12/28 00:57:04;;;;;;;0.20;0.20;;;;;;;15.90;63.91;100786.66;5068710;28;20381;-73
2023/12/28 00:59:30;;;;;;;0.30;0.30;;;;;;;15.78;64.63;100775.25;5064423;28;20020;-74
2023/12/28 01:01:56;;;;;;;0.30;0.30;;;;;;;16.22;63.54;100775.75;5064390;28;20025;-73
2023/12/28 01:04:23;;;;;;;0.30;0.30;;;;;;;16.39;62.83;100773.69;5068289;28;20111;-73
2023/12/28 01:06:49;;;;;;;0.20;0.20;;;;;;;16.07;63.87;100791.94;5064086;28;20036;-74
2023/12/28 01:09:14;;;;;;;0.35;0.35;;;;;;;16.03;65.30;100780.81;5064898;28;20036;-73
2023/12/28 01:11:40;;;;;;;0.30;0.30;;;;;;;16.23;63.62;100775.50;5069372;28;20497;-72
2023/12/28 01:14:05;;;;;;;0.32;0.32;;;;;;;16.22;65.03;100776.56;5068987;28;20378;-73
2023/12/28 01:16:30;;;;;;;0.30;0.30;;;;;;;15.99;65.39;100800.56;5069357;28;20127;-73
2023/12/28 01:18:56;;;;;;;0.15;0.15;;;;;;;15.79;66.16;100782.28;5068353;28;20108;-76
2023/12/28 01:21:21;;;;;;;0.20;0.20;;;;;;;15.97;66.60;100764.78;5068114;28;20025;-74
2023/12/28 01:23:47;;;;;;;0.30;0.30;;;;;;;16.26;64.77;100783.09;5068805;28;20025;-71
2023/12/28 01:26:14;;;;;;;0.20;0.20;;;;;;;16.47;64.51;100787.53;5068233;28;20036;-73
2023/12/28 01:28:39;;;;;;;0.28;0.28;;;;;;;16.62;63.56;100795.78;5075670;28;20039;-73
2023/12/28 01:31:05;;;;;;;0.20;0.20;;;;;;;15.77;66.68;100789.84;5088760;28;20032;-73
2023/12/28 01:33:30;;;;;;;0.20;0.20;;;;;;;15.92;65.25;100778.31;5088552;28;20024;-74
2023/12/28 01:35:55;;;;;;;0.20;0.20;;;;;;;16.21;65.37;100784.97;5066869;28;20016;-73
2023/12/28 01:38:21;;;;;;;0.20;0.20;;;;;;;16.18;64.44;100799.88;5068951;28;20483;-74
2023/12/28 01:40:46;;;;;;;0.20;0.20;;;;;;;16.09;65.15;100803.34;5068218;28;20043;-74
2023/12/28 01:43:12;;;;;;;0.20;0.20;;;;;;;16.20;64.66;100819.41;5068072;28;20699;-74
2023/12/28 01:45:37;;;;;;;0.20;0.20;;;;;;;16.67;63.22;100805.81;5070743;28;20492;-74
2023/12/28 01:48:04;;;;;;;0.30;0.30;;;;;;;16.11;65.40;100802.00;5071724;28;20103;-74
2023/12/28 01:50:31;;;;;;;0.22;0.22;;;;;;;16.29;64.98;100790.72;5072312;28;20028;-74
2023/12/28 01:52:59;;;;;;;0.10;0.10;;;;;;;16.42;64.08;100794.81;5071798;28;20147;-74
2023/12/28 01:55:25;;;;;;;0.32;0.32;;;;;;;16.20;65.31;100802.31;5071650;28;20028;-74
2023/12/28 01:57:51;;;;;;;0.25;0.25;;;;;;;16.25;65.09;100792.31;5053496;28;20032;-74
2023/12/28 02:00:17;;;;;;;0.20;0.20;;;;;;;15.67;67.06;100800.59;5071335;28;20033;-74
2023/12/28 02:02:44;;;;;;;0.20;0.20;;;;;;;16.36;64.12;100799.41;5070836;28;20407;-75
2023/12/28 02:05:12;;;;;;;0.30;0.30;;;;;;;15.97;66.63;100800.81;5071639;28;20136;-74
2023/12/28 02:07:37;;;;;;;0.40;0.40;;;;;;;16.96;62.43;100789.91;5071051;28;20047;-74
2023/12/28 02:10:03;;;;;;;0.30;0.30;;;;;;;16.30;64.06;100795.06;5071361;28;20029;-74
2023/12/28 02:12:29;;;;;;;0.30;0.30;;;;;;;16.95;62.67;100780.94;5052943;28;20115;-73
2023/12/28 02:14:54;;;;;;;0.25;0.25;;;;;;;16.40;62.89;100786.97;5071160;28;20020;-73
2023/12/28 02:17:25;;;;;;;0.40;0.40;;;;;;;16.00;64.91;100789.44;5071626;28;20047;-74
2023/12/28 02:19:53;;;;;;;0.30;0.30;;;;;;;16.11;64.02;100795.75;5053132;28;20101;-73
2023/12/28 02:22:18;;;;;;;0.20;0.20;;;;;;;16.39;63.63;100793.44;5071152;28;20036;-74
2023/12/28 02:24:56;;;;;;;0.20;0.20;;;;;;;16.71;63.17;100800.69;5070924;28;20041;-74
2023/12/28 02:27:21;;;;;;;0.40;0.40;;;;;;;16.77;62.25;100796.88;5070808;28;20032;-72
2023/12/28 02:29:47;;;;;;;0.40;0.40;;;;;;;16.62;63.28;100779.50;5053424;28;20131;-72
2023/12/28 02:32:15;;;;;;;0.40;0.40;;;;;;;17.19;60.88;100798.38;5070831;28;20032;-73
2023/12/28 02:34:44;;;;;;;0.20;0.20;;;;;;;16.69;62.06;100790.91;5070954;28;20036;-73
2023/12/28 02:37:16;;;;;;;0.20;0.20;;;;;;;16.75;62.00;100801.75;5070539;28;20047;-72
2023/12/28 02:39:44;;;;;;;0.20;0.20;;;;;;;16.36;62.55;100799.41;5070700;28;20028;-74
2023/12/28 02:42:09;;;;;;;0.40;0.40;;;;;;;16.49;63.57;100790.81;5052329;28;20038;-73
2023/12/28 02:44:34;;;;;;;0.10;0.10;;;;;;;16.06;64.98;100791.13;5071399;28;20123;-73
2023/12/28 02:47:00;;;;;;;0.25;0.25;;;;;;;16.42;64.03;100798.38;5070663;28;20052;-74
2023/12/28 02:49:25;;;;;;;0.20;0.20;;;;;;;16.43;62.77;100788.34;5052798;28;20063;-74
2023/12/28 02:51:51;;;;;;;0.28;0.28;;;;;;;16.46;62.71;100794.03;5043058;28;20051;-72
2023/12/28 02:54:16;;;;;;;0.20;0.20;;;;;;;16.14;63.90;100793.34;5050862;28;20033;-75
2023/12/28 02:56:41;;;;;;;0.30;0.30;;;;;;;16.21;63.68;100791.22;5049541;28;20417;-73
2023/12/28 02:59:07;;;;;;;0.20;0.20;;;;;;;16.57;62.49;100789.50;5059969;28;20055;-73
2023/12/28 03:01:32;;;;;;;0.20;0.20;;;;;;;16.52;62.45;100771.31;5070751;28;20412;-73
2023/12/28 03:03:57;;;;;;;0.25;0.25;;;;;;;17.20;60.40;100769.28;5070262;28;20035;-73
2023/12/28 03:06:23;;;;;;;0.30;0.30;;;;;;;16.06;63.25;100798.44;5069897;28;20048;-75
2023/12/28 03:08:48;;;;;;;0.30;0.30;;;;;;;16.40;62.43;100794.28;5070478;28;20496;-74
2023/12/28 03:11:14;;;;;;;0.30;0.30;;;;;;;16.80;59.90;100788.22;5070398;28;20060;-74
2023/12/28 03:13:40;;;;;;;0.20;0.20;;;;;;;16.11;63.65;100784.91;5070291;28;20051;-73
2023/12/28 03:16:06;;;;;;;0.30;0.30;;;;;;;16.59;62.46;100785.44;5069957;28;20032;-73
2023/12/28 03:18:31;;;;;;;0.20;0.20;;;;;;;16.63;61.45;100780.28;5069736;28;20081;-74
2023/12/28 03:20:56;;;;;;;0.20;0.20;;;;;;;16.96;60.03;100768.97;5069643;28;20041;-72
2023/12/28 03:23:22;;;;;;;0.10;0.10;;;;;;;16.51;61.21;100771.59;5070230;28;20043;-74
2023/12/28 03:25:48;;;;;;;0.20;0.20;;;;;;;16.35;61.91;100762.50;5069762;28;20058;-74
2023/12/28 03:28:13;;;;;;;0.20;0.20;;;;;;;16.40;61.56;100749.00;5069693;28;20063;-74
2023/12/28 03:30:39;;;;;;;0.20;0.20;;;;;;;16.74;61.09;100771.13;5069841;28;20025;-75
2023/12/28 03:33:04;;;;;;;0.22;0.22;;;;;;;16.42;61.96;100789.41;5069859;28;20083;-74
2023/12/28 03:35:29;;;;;;;0.20;0.20;;;;;;;16.15;62.42;100777.88;5070279;28;20317;-74
2023/12/28 03:37:55;;;;;;;0.30;0.30;;;;;;;16.14;62.48;100763.50;5069671;28;20048;-73
2023/12/28 03:40:20;;;;;;;0.20;0.20;;;;;;;16.43;61.64;100775.56;5069508;28;20044;-74
2023/12/28 03:42:45;;;;;;;0.30;0.30;;;;;;;16.02;61.93;100802.75;5069515;28;20024;-74
2023/12/28 03:45:11;;;;;;;0.25;0.25;;;;;;;16.22;61.58;100767.59;5090338;28;20244;-74
2023/12/28 03:47:37;;;;;;;0.40;0.40;;;;;;;16.23;61.99;100770.09;5085510;28;20020;-74
2023/12/28 03:50:03;;;;;;;0.30;0.30;;;;;;;16.49;59.96;100788.09;5070191;28;20028;-76
2023/12/28 03:52:31;;;;;;;0.30;0.30;;;;;;;16.13;61.23;100790.88;5070053;28;20032;-74
2023/12/28 03:54:57;;;;;;;0.20;0.20;;;;;;;16.63;59.77;100780.28;5069430;28;20089;-73
2023/12/28 03:57:22;;;;;;;0.30;0.30;;;;;;;16.37;60.80;100765.78;5051842;28;20041;-75
2023/12/28 03:59:48;;;;;;;0.30;0.30;;;;;;;16.02;61.93;100768.31;5069578;28;20036;-76
2023/12/28 04:02:13;;;;;;;0.20;0.20;;;;;;;16.65;59.98;100762.66;5069491;28;20040;-73
2023/12/28 04:04:39;;;;;;;0.20;0.20;;;;;;;16.63;59.19;100756.69;5069120;28;20029;-74
2023/12/28 04:07:07;;;;;;;0.20;0.20;;;;;;;16.48;59.65;100758.50;5068374;28;20040;-75
2023/12/28 04:09:33;;;;;;;0.10;0.10;;;;;;;16.15;60.63;100756.19;5069552;28;20028;-73
2023/12/28 04:11:58;;;;;;;0.20;0.20;;;;;;;16.12;60.77;100754.00;5069299;28;20029;-78
2023/12/28 04:14:24;;;;;;;0.30;0.30;;;;;;;16.90;58.52;100777.41;5051709;28;20074;-74
2023/12/28 04:16:49;;;;;;;0.30;0.30;;;;;;;16.92;58.16;100769.81;5051240;28;20037;-73
2023/12/28 04:19:14;;;;;;;0.20;0.20;;;;;;;16.40;59.65;100783.44;5069196;28;20033;-75
2023/12/28 04:21:43;;;;;;;0.30;0.30;;;;;;;16.20;60.93;100765.16;5069171;28;20373;-75
2023/12/28 04:24:09;;;;;;;0.28;0.28;;;;;;;16.89;58.65;100760.28;5068845;28;20075;-73
2023/12/28 04:26:34;;;;;;;0.10;0.10;;;;;;;16.69;59.60;100771.09;5069130;28;20024;-74
2023/12/28 04:29:00;;;;;;;0.25;0.25;;;;;;;16.33;59.59;100740.25;5068222;28;20443;-74
2023/12/28 04:31:25;;;;;;;0.22;0.22;;;;;;;16.72;58.64;100754.28;5069221;28;20527;-74
2023/12/28 04:33:50;;;;;;;0.20;0.20;;;;;;;16.65;59.51;100765.38;5069095;28;20040;-74
2023/12/28 04:36:16;;;;;;;0.22;0.22;;;;;;;16.36;60.10;100783.16;5069142;28;20036;-75
2023/12/28 04:38:41;;;;;;;0.20;0.20;;;;;;;16.90;58.73;100759.22;5069377;28;20032;-72
2023/12/28 04:41:09;;;;;;;0.30;0.30;;;;;;;16.52;59.74;100767.78;5068693;28;20036;-73
2023/12/28 04:43:34;;;;;;;0.22;0.22;;;;;;;16.77;57.91;100745.31;5065369;28;20049;-74
2023/12/28 04:46:04;;;;;;;0.20;0.20;;;;;;;16.71;58.81;100757.28;5048349;28;20040;-74
2023/12/28 04:48:30;;;;;;;0.22;0.22;;;;;;;17.00;57.97;100761.13;5048917;28;20029;-74
2023/12/28 04:50:55;;;;;;;0.30;0.30;;;;;;;16.58;59.27;100753.16;5049437;28;20370;-73
2023/12/28 04:53:21;;;;;;;0.30;0.30;;;;;;;16.09;61.26;100787.91;5049975;28;20036;-74
2023/12/28 04:55:46;;;;;;;0.20;0.20;;;;;;;16.22;60.99;100760.31;5048782;28;20083;-75
2023/12/28 04:58:12;;;;;;;0.30;0.30;;;;;;;16.61;59.95;100764.28;5048512;28;20518;-73
2023/12/28 05:00:37;;;;;;;0.30;0.30;;;;;;;16.29;60.92;100747.34;5048708;28;20029;-75
2023/12/28 05:03:03;;;;;;;0.20;0.20;;;;;;;16.86;59.16;100749.16;5046722;28;20053;-72
2023/12/28 05:05:28;;;;;;;0.32;0.32;;;;;;;16.36;60.79;100761.44;5045033;28;20423;-72
2023/12/28 05:07:54;;;;;;;0.30;0.30;;;;;;;17.61;57.06;100748.41;5038153;28;20036;-73
2023/12/28 05:10:19;;;;;;;0.20;0.20;;;;;;;16.28;60.40;100745.69;5044207;28;20041;-74
2023/12/28 05:12:44;;;;;;;0.30;0.30;;;;;;;16.45;60.78;100740.84;5048170;28;20426;-75
2023/12/28 05:15:10;;;;;;;0.30;0.30;;;;;;;16.40;60.42;100731.91;5048202;28;20067;-74
2023/12/28 05:17:36;;;;;;;0.20;0.20;;;;;;;16.25;61.32;100753.53;5049627;28;20039;-75
2023/12/28 05:20:01;;;;;;;0.20;0.20;;;;;;;16.27;60.67;100749.50;5051184;28;20044;-73
2023/12/28 05:22:26;;;;;;;0.10;0.10;;;;;;;15.59;62.45;100761.28;5053429;28;20036;-75
2023/12/28 05:24:52;;;;;;;0.28;0.28;;;;;;;16.61;60.14;100750.72;5052100;28;20099;-72
2023/12/28 05:27:17;;;;;;;0.10;0.10;;;;;;;16.77;59.05;100757.00;5052181;28;20052;-72
2023/12/28 05:29:42;;;;;;;0.20;0.20;;;;;;;16.15;60.97;100748.06;5069142;28;20078;-73
2023/12/28 05:32:08;;;;;;;0.20;0.20;;;;;;;16.52;59.91;100763.19;5072198;28;20029;-72
2023/12/28 05:34:33;;;;;;;0.20;0.20;;;;;;;16.67;58.89;100779.50;5072338;28;20033;-76
2023/12/28 05:36:59;;;;;;;0.28;0.28;;;;;;;16.18;60.74;100791.72;5071984;28;20040;-75
2023/12/28 05:39:24;;;;;;;0.43;0.43;;;;;;;15.91;61.91;100779.38;5071942;28;20036;-74
2023/12/28 05:41:50;;;;;;;0.30;0.30;;;;;;;16.86;59.10;100757.31;5052240;28;20021;-74
2023/12/28 05:44:16;;;;;;;0.20;0.20;;;;;;;16.13;60.77;100769.19;5058652;28;20053;-73
2023/12/28 05:46:41;;;;;;;0.10;0.10;;;;;;;16.35;60.14;100775.28;5071664;28;20463;-73
2023/12/28 05:49:07;;;;;;;0.20;0.20;;;;;;;16.42;60.17;100773.13;5072032;28;20135;-74
2023/12/28 05:51:39;;;;;;;0.32;0.32;;;;;;;16.37;59.75;100786.69;5053968;28;20033;-78
2023/12/28 05:54:05;;;;;;;0.20;0.20;;;;;;;16.19;60.79;100774.41;5053573;28;20041;-73
2023/12/28 05:56:31;;;;;;;0.10;0.10;;;;;;;16.18;60.72;100802.56;5072339;28;20380;-75
2023/12/28 05:58:56;;;;;;;0.20;0.20;;;;;;;15.72;61.88;100792.53;5070403;28;20082;-76
2023/12/28 06:01:21;;;;;;;0.20;0.20;;;;;;;16.15;60.73;100786.84;5047251;28;20036;-74
2023/12/28 06:03:49;;;;;;;0.30;0.30;;;;;;;15.92;61.43;100792.66;5053692;28;20043;-73
2023/12/28 06:06:14;;;;;;;0.22;0.22;;;;;;;16.55;59.73;100762.63;5071730;28;20102;-73
2023/12/28 06:08:40;;;;;;;0.20;0.20;;;;;;;16.34;59.44;100771.75;5069251;28;20024;-73
2023/12/28 06:11:05;;;;;;;0.20;0.20;;;;;;;16.36;59.59;100772.31;5062169;28;20055;-73
2023/12/28 06:13:30;;;;;;;0.10;0.10;;;;;;;15.59;61.49;100780.22;5059607;28;20312;-74
2023/12/28 06:15:56;;;;;;;0.30;0.30;;;;;;;16.56;59.12;100780.56;5051337;28;20051;-74
2023/12/28 06:18:21;;;;;;;0.20;0.20;;;;;;;16.36;59.03;100776.91;5053443;28;20040;-75
2023/12/28 06:20:47;;;;;;;0.20;0.20;;;;;;;16.01;60.54;100785.69;5062672;28;20024;-74
2023/12/28 06:23:12;;;;;;;0.20;0.20;;;;;;;16.16;60.19;100761.34;5057930;28;20025;-76
2023/12/28 06:25:38;;;;;;;0.20;0.20;;;;;;;15.98;60.57;100767.22;5066881;28;20037;-74
2023/12/28 06:28:03;;;;;;;0.30;0.30;;;;;;;15.90;59.98;100772.31;5047096;28;20029;-75
2023/12/28 06:30:29;;;;;;;0.25;0.25;;;;;;;16.73;57.76;100761.31;5062675;28;20040;-74
2023/12/28 06:32:54;;;;;;;0.28;0.28;;;;;;;15.82;60.61;100763.59;5061926;28;20028;-76
2023/12/28 06:35:20;;;;;;;0.20;0.20;;;;;;;16.20;59.30;100772.47;5061190;28;20040;-76
2023/12/28 06:37:45;;;;;;;0.20;0.20;;;;;;;15.88;60.13;100756.31;5064213;28;20466;-75
2023/12/28 06:40:11;;;;;;;0.10;0.10;;;;;;;15.70;60.66;100762.97;5063936;28;20086;-77
2023/12/28 06:42:37;;;;;;;0.20;0.20;;;;;;;16.43;58.54;100770.16;5059320;28;20567;-75
2023/12/28 06:45:02;;;;;;;0.20;0.20;;;;;;;16.54;58.72;100757.47;5058142;28;20045;-73
2023/12/28 06:47:28;;;;;;;0.28;0.28;;;;;;;16.30;58.81;100761.69;5054600;28;20040;-76
2023/12/28 06:49:53;;;;;;;0.22;0.22;;;;;;;16.08;59.81;100782.75;5032774;28;20094;-74
2023/12/28 06:52:18;;;;;;;0.30;0.30;;;;;;;16.23;59.09;100790.94;5062895;28;20024;-76
2023/12/28 06:54:44;;;;;;;0.10;0.10;;;;;;;16.26;59.82;100809.38;5080798;28;20025;-73
2023/12/28 06:57:09;;;;;;;0.32;0.32;;;;;;;16.96;57.29;100800.75;5058685;28;20048;-74
2023/12/28 06:59:35;;;;;;;0.32;0.32;;;;;;;16.29;58.70;100790.72;5071147;28;20025;-74
2023/12/28 07:02:00;;;;;;;0.17;0.17;;;;;;;15.98;60.47;100796.22;5071152;28;20052;-76
2023/12/28 07:04:29;;;;;;;0.20;0.20;;;;;;;16.69;57.50;100793.63;5049932;28;20139;-75
2023/12/28 07:06:54;;;;;;;0.35;0.35;;;;;;;16.86;57.82;100779.84;5042132;28;20049;-74
2023/12/28 07:09:20;;;;;;;0.20;0.20;;;;;;;16.71;57.65;100801.47;5061502;28;20111;-74
2023/12/28 07:11:45;;;;;;;0.30;0.30;;;;;;;16.14;59.37;100796.03;5060058;28;20519;-75
2023/12/28 07:14:11;;;;;;;0.30;0.30;;;;;;;16.63;58.37;100807.41;5062163;28;20710;-74
2023/12/28 07:16:36;;;;;;;0.30;0.30;;;;;;;16.68;58.23;100813.72;5070626;28;20040;-76
2023/12/28 07:19:03;;;;;;;0.20;0.20;;;;;;;16.20;59.50;100826.72;5053644;28;20029;-76
2023/12/28 07:21:28;;;;;;;0.20;0.20;;;;;;;16.91;57.65;100831.41;5050712;28;20152;-75
2023/12/28 07:23:54;;;;;;;0.20;0.20;;;;;;;16.30;58.87;100835.72;5065154;28;20047;-76
2023/12/28 07:26:20;;;;;;;0.20;0.20;;;;;;;16.30;59.47;100846.56;5068998;28;20032;-76
2023/12/28 07:28:48;;;;;;;0.17;0.17;;;;;;;16.19;59.59;100838.66;5090379;28;20028;-74
2023/12/28 07:31:25;;;;;;;0.20;0.20;;;;;;;15.90;60.99;100827.31;5086845;28;20038;-73
2023/12/28 07:33:51;;;;;;;0.10;0.10;;;;;;;16.24;59.07;100842.19;5069744;28;20036;-74
2023/12/28 07:36:16;;;;;;;0.10;0.10;;;;;;;16.52;58.67;100839.13;5070537;28;20045;-73
2023/12/28 07:38:41;;;;;;;0.20;0.20;;;;;;;16.70;58.49;100848.72;5052470;28;20028;-75
2023/12/28 07:41:07;;;;;;;0.13;0.13;;;;;;;15.99;60.53;100841.22;5071171;28;20043;-74
2023/12/28 07:43:33;;;;;;;0.20;0.20;;;;;;;16.47;58.72;100857.25;5069597;28;20044;-73
2023/12/28 07:45:58;;;;;;;0.38;0.38;;;;;;;16.35;59.23;100841.16;5058634;28;20040;-74
2023/12/28 07:48:23;;;;;;;0.30;0.30;;;;;;;16.34;58.34;100838.72;5070526;28;20025;-73
2023/12/28 07:50:51;;;;;;;0.30;0.30;;;;;;;16.45;58.94;100864.84;5069475;28;20098;-74
2023/12/28 07:53:17;;;;;;;0.20;0.20;;;;;;;15.98;59.34;100875.63;5069776;28;20291;-77
2023/12/28 07:55:42;;;;;;;0.30;0.30;;;;;;;16.29;59.07;100869.38;5068068;28;20043;-72
2023/12/28 07:58:07;;;;;;;0.15;0.15;;;;;;;17.17;57.08;100878.47;5069642;28;20041;-74
2023/12/28 08:00:33;;;;;;;0.10;0.10;;;;;;;16.43;59.03;100875.13;5070328;28;20484;-73
2023/12/28 08:02:58;;;;;;;0.30;0.30;;;;;;;16.39;58.82;100888.38;5069680;28;20082;-74
2023/12/28 08:05:24;;;;;;;0.20;0.20;;;;;;;16.63;58.37;100881.50;5070056;28;20373;-74
2023/12/28 08:07:49;;;;;;;0.35;0.35;;;;;;;16.41;59.33;100890.84;5070058;28;20032;-75
2023/12/28 08:10:15;;;;;;;0.20;0.20;;;;;;;16.61;57.82;100877.41;5051371;28;20028;-73
2023/12/28 08:12:40;;;;;;;0.20;0.20;;;;;;;16.30;58.55;100894.56;5069179;28;20020;-73
2023/12/28 08:15:06;;;;;;;0.20;0.20;;;;;;;16.72;57.41;100889.97;5055689;28;20036;-73
2023/12/28 08:17:31;;;;;;;0.20;0.20;;;;;;;16.56;58.07;100896.41;5051960;28;20472;-74
2023/12/28 08:19:57;;;;;;;0.10;0.10;;;;;;;16.07;59.71;100886.81;5073646;28;20048;-75
2023/12/28 08:22:22;;;;;;;0.32;0.32;;;;;;;16.37;58.87;100887.03;5071587;28;20510;-75
2023/12/28 08:24:48;;;;;;;0.20;0.20;;;;;;;16.32;58.54;100893.22;5085525;28;20305;-73
2023/12/28 08:27:13;;;;;;;0.28;0.28;;;;;;;16.62;57.74;100884.50;5069792;28;20458;-75
2023/12/28 08:29:40;;;;;;;0.20;0.20;;;;;;;16.04;59.87;100860.25;5069795;28;20464;-72
2023/12/28 08:32:06;;;;;;;0.30;0.30;;;;;;;16.41;59.30;100894.38;5069824;28;20420;-76
2023/12/28 08:34:31;;;;;;;0.32;0.32;;;;;;;16.35;59.25;100873.72;5069364;28;20040;-73
2023/12/28 08:36:57;;;;;;;0.20;0.20;;;;;;;16.50;59.20;100873.84;5067829;28;20029;-74
2023/12/28 08:39:22;;;;;;;0.20;0.20;;;;;;;16.77;58.34;100876.41;5069510;28;20040;-76
2023/12/28 08:41:48;;;;;;;0.20;0.20;;;;;;;17.05;57.19;100883.31;5069560;28;20040;-72
2023/12/28 08:44:13;;;;;;;0.20;0.20;;;;;;;16.59;58.38;100891.25;5067133;28;20086;-78
2023/12/28 08:46:38;;;;;;;0.40;0.40;;;;;;;16.89;57.14;100914.19;5068944;28;20408;-77
2023/12/28 08:49:04;;;;;;;0.20;0.20;;;;;;;16.76;57.85;100882.13;5069419;28;20036;-74
2023/12/28 08:51:29;;;;;;;0.40;0.40;;;;;;;16.62;58.66;100895.34;5064509;28;20033;-74
2023/12/28 08:53:54;;;;;;;0.20;0.20;;;;;;;16.27;59.75;100898.63;5065345;28;20037;-75
2023/12/28 08:56:20;;;;;;;0.20;0.20;;;;;;;16.65;58.36;100892.91;5071609;28;20036;-74
2023/12/28 08:58:47;;;;;;;0.20;0.20;;;;;;;16.53;58.65;100886.88;5072982;28;20040;-78
2023/12/28 09:01:23;;;;;;;0.20;0.20;;;;;;;16.77;58.19;100886.44;5068649;28;20043;-73
2023/12/28 09:03:49;;;;;;;0.20;0.20;;;;;;;16.50;58.25;100883.88;5072764;28;20041;-74
2023/12/28 09:06:16;;;;;;;0.10;0.10;;;;;;;16.97;56.94;100889.25;5073243;28;20200;-73
2023/12/28 09:08:43;;;;;;;0.30;0.30;;;;;;;16.80;57.76;100884.03;5089053;28;20563;-73
2023/12/28 09:11:12;;;;;;;0.22;0.22;;;;;;;17.12;56.20;100892.03;5088162;28;20067;-72
2023/12/28 09:13:41;;;;;;;0.25;0.25;;;;;;;16.43;58.52;100884.06;5072845;28;20535;-74
2023/12/28 09:16:11;;;;;;;0.10;0.10;;;;;;;16.53;58.15;100910.47;5072683;28;20033;-73
2023/12/28 09:18:37;;;;;;;0.30;0.30;;;;;;;16.68;58.54;100895.13;5072633;28;20128;-73
2023/12/28 09:21:04;;;;;;;0.30;0.30;;;;;;;16.74;57.20;100895.94;5072517;28;20029;-73
2023/12/28 09:23:31;;;;;;;0.28;0.28;;;;;;;16.58;57.97;100905.09;5073344;28;20399;-74
2023/12/28 09:25:57;;;;;;;0.20;0.20;;;;;;;17.06;57.11;100895.81;5072176;28;20500;-74
2023/12/28 09:28:23;;;;;;;0.20;0.20;;;;;;;16.83;56.77;100907.91;5072188;28;20033;-73
2023/12/28 09:30:48;;;;;;;0.20;0.20;;;;;;;16.10;59.90;100925.06;5072856;28;20036;-73
2023/12/28 09:33:15;;;;;;;0.20;0.20;;;;;;;16.28;59.55;100902.16;5072262;28;20188;-73
2023/12/28 09:35:40;;;;;;;0.32;0.32;;;;;;;17.61;55.27;100917.69;5070801;28;20037;-73
2023/12/28 09:38:06;;;;;;;0.20;0.20;;;;;;;16.46;58.37;100918.81;5072287;28;20044;-73
2023/12/28 09:40:31;;;;;;;0.20;0.20;;;;;;;17.12;57.35;100928.13;5072051;28;20037;-73
2023/12/28 09:43:21;;;;;;;0.30;0.30;;;;;;;17.03;57.01;100926.19;5071774;28;20038;-73
2023/12/28 09:45:47;;;;;;;0.20;0.20;;;;;;;17.99;53.54;100940.84;5071755;28;20412;-74
2023/12/28 09:48:16;;;;;;;0.30;0.30;;;;;;;16.65;58.53;100940.94;5072425;28;20025;-74
2023/12/28 09:50:42;;;;;;;0.20;0.20;;;;;;;16.43;58.89;100937.53;5072571;28;20035;-73
2023/12/28 09:53:07;;;;;;;0.20;0.20;;;;;;;16.86;57.31;100942.69;5070160;28;20123;-73
2023/12/28 09:55:33;;;;;;;0.25;0.25;;;;;;;17.22;56.29;100933.59;5071706;28;20040;-75
2023/12/28 09:58:00;;;;;;;0.15;0.15;;;;;;;16.72;57.52;100948.84;5071549;28;20032;-78
2023/12/28 10:00:25;;;;;;;0.20;0.20;;;;;;;17.20;56.40;100960.22;5072416;28;20113;-74
2023/12/28 10:02:51;;;;;;;0.10;0.10;;;;;;;17.80;55.30;100932.41;5071994;28;20484;-73
2023/12/28 10:05:16;;;;;;;0.30;0.30;;;;;;;16.92;57.57;100946.25;5070570;28;20051;-74
2023/12/28 10:07:43;;;;;;;0.30;0.30;;;;;;;17.18;57.12;100934.41;5066708;28;20083;-74
2023/12/28 10:10:09;;;;;;;0.30;0.30;;;;;;;16.60;58.68;100930.88;5070584;28;20040;-74
2023/12/28 10:12:35;;;;;;;0.10;0.10;;;;;;;16.52;58.53;100934.09;5071129;28;20036;-73
2023/12/28 10:15:01;;;;;;;0.20;0.20;;;;;;;16.33;59.78;100954.53;5072747;28;20028;-74
2023/12/28 10:17:26;;;;;;;0.20;0.20;;;;;;;17.46;56.59;100936.66;5072498;28;20036;-74
2023/12/28 10:19:52;;;;;;;0.20;0.20;;;;;;;16.62;58.63;100944.19;5072008;28;20484;-75
2023/12/28 10:22:18;;;;;;;0.22;0.22;;;;;;;17.24;56.25;100947.72;5066790;28;20037;-78
2023/12/28 10:24:44;;;;;;;0.10;0.10;;;;;;;16.59;58.65;100950.13;5059734;28;20061;-73
2023/12/28 10:27:09;;;;;;;0.20;0.20;;;;;;;16.29;58.82;100933.63;5061126;28;20212;-73
2023/12/28 10:29:35;;;;;;;0.22;0.22;;;;;;;16.68;57.93;100949.38;5072084;28;20118;-73
2023/12/28 10:32:01;;;;;;;0.20;0.20;;;;;;;16.99;57.41;100958.50;5071197;28;20028;-74
2023/12/28 10:34:26;;;;;;;0.20;0.20;;;;;;;16.87;57.29;100959.78;5070249;28;20051;-74
2023/12/28 10:36:52;;;;;;;0.40;0.40;;;;;;;17.38;55.72;100934.47;5068677;28;20028;-73
2023/12/28 10:39:20;;;;;;;0.28;0.28;;;;;;;16.58;58.30;100943.91;5070581;28;20025;-75
2023/12/28 10:41:49;;;;;;;0.20;0.20;;;;;;;16.98;57.16;100953.34;5071268;28;20016;-74
2023/12/28 10:44:19;;;;;;;0.20;0.20;;;;;;;16.80;57.52;100942.94;5070934;28;20044;-72
2023/12/28 10:46:47;;;;;;;0.13;0.13;;;;;;;16.69;57.10;100937.44;5070844;28;20033;-73
2023/12/28 10:49:16;;;;;;;0.20;0.20;;;;;;;16.91;56.81;100959.00;5070698;28;20032;-75
2023/12/28 10:51:43;;;;;;;0.20;0.20;;;;;;;17.28;55.49;100969.75;5070536;28;20046;-73
2023/12/28 10:54:59;;;;;;;0.30;0.30;;;;;;;16.97;57.34;100970.69;5070654;28;20392;-73
2023/12/28 10:57:33;;;;;;;0.30;0.30;;;;;;;16.95;57.22;100956.56;4958187;28;20039;-73
2023/12/28 11:00:11;;;;;;;0.20;0.20;;;;;;;16.64;58.11;100964.56;4963223;28;20079;-73
2023/12/28 11:02:45;;;;;;;0.20;0.20;;;;;;;16.51;58.14;100954.16;4964709;28;20590;-77
2023/12/28 11:05:12;;;;;;;0.30;0.30;;;;;;;17.20;56.83;100948.53;4960794;28;20110;-74
2023/12/28 11:07:39;;;;;;;0.20;0.20;;;;;;;17.15;56.31;100943.09;4961008;28;20042;-74
2023/12/28 11:10:06;;;;;;;0.20;0.20;;;;;;;16.81;57.49;100947.25;4949973;28;20089;-75
2023/12/28 11:12:32;;;;;;;0.10;0.10;;;;;;;17.16;56.31;100969.19;4957368;28;20067;-76
2023/12/28 11:14:59;;;;;;;0.30;0.30;;;;;;;17.45;56.95;100964.94;4958620;28;20087;-75
2023/12/28 11:17:25;;;;;;;0.20;0.20;;;;;;;16.28;60.56;100968.06;4962699;28;20042;-75
2023/12/28 11:19:53;;;;;;;0.20;0.20;;;;;;;16.08;62.76;100973.31;4958022;28;20043;-77